Time;durP1;ratioP1;P1;durP2;ratioP2;P2;SDS_P1;SDS_P2;PMS_P1;PMS_P2;Temp;Humidity;BMP_temperature;BMP_pressure;BME280_temperature;BME280_humidity;BME280_pressure;Samples;Min_cycle;Max_cycle;Signal;HPM_P1;HPM_P2
2022/04/04 00:00:39;;;;;;;9.23;4.70;;;5.30;99.90;;;;;;5289920;28;20023;-75
2022/04/04 00:03:10;;;;;;;7.32;4.72;;;5.40;99.90;;;;;;5289830;28;20031;-75
2022/04/04 00:05:41;;;;;;;8.80;4.85;;;5.40;99.90;;;;;;5289548;28;20027;-74
2022/04/04 00:08:12;;;;;;;9.57;5.40;;;5.10;99.90;;;;;;5289857;28;20030;-74
2022/04/04 00:10:43;;;;;;;9.40;5.28;;;5.10;99.90;;;;;;5271553;28;20019;-73
2022/04/04 00:13:14;;;;;;;10.55;5.70;;;5.40;99.90;;;;;;5271434;28;20028;-75
2022/04/04 00:15:45;;;;;;;8.98;5.60;;;5.50;99.90;;;;;;5289489;28;20031;-73
2022/04/04 00:18:15;;;;;;;10.27;5.43;;;5.50;99.90;;;;;;5289738;28;20482;-75
2022/04/04 00:20:46;;;;;;;8.98;5.22;;;5.40;99.90;;;;;;5271430;28;20008;-73
2022/04/04 00:23:18;;;;;;;10.70;5.38;;;5.40;99.90;;;;;;5289610;28;20036;-74
2022/04/04 00:25:49;;;;;;;9.07;5.13;;;5.00;99.90;;;;;;5289396;28;20387;-73
2022/04/04 00:28:19;;;;;;;8.52;5.22;;;5.10;99.90;;;;;;5289634;28;20027;-74
2022/04/04 00:30:50;;;;;;;8.68;5.32;;;4.90;99.90;;;;;;5289560;28;20027;-75
2022/04/04 00:33:21;;;;;;;10.88;5.25;;;4.40;99.90;;;;;;5289479;28;20016;-74
2022/04/04 00:35:52;;;;;;;6.65;4.40;;;4.70;99.90;;;;;;5289528;28;20041;-74
2022/04/04 00:38:23;;;;;;;9.63;5.10;;;5.00;99.90;;;;;;5289567;28;20085;-74
2022/04/04 00:40:53;;;;;;;10.23;5.80;;;4.70;99.90;;;;;;5289497;28;20366;-74
2022/04/04 00:43:25;;;;;;;10.07;6.30;;;4.30;99.90;;;;;;5289256;28;20050;-75
2022/04/04 00:45:55;;;;;;;11.27;6.25;;;4.60;99.90;;;;;;5289267;28;20399;-75
2022/04/04 00:48:26;;;;;;;11.75;5.72;;;4.70;99.90;;;;;;5289321;28;20027;-74
2022/04/04 00:50:57;;;;;;;10.30;5.90;;;4.80;99.90;;;;;;5290604;28;20024;-75
2022/04/04 00:53:30;;;;;;;9.88;5.53;;;5.00;99.90;;;;;;5293392;28;20382;-74
2022/04/04 00:56:01;;;;;;;7.57;4.95;;;5.30;99.90;;;;;;5293373;28;20024;-74
2022/04/04 00:58:38;;;;;;;9.20;5.07;;;5.60;99.90;;;;;;5293230;28;20028;-74
2022/04/04 01:01:08;;;;;;;9.35;5.07;;;5.60;99.90;;;;;;5293402;28;20495;-75
2022/04/04 01:03:40;;;;;;;10.73;6.10;;;5.40;99.90;;;;;;5293068;28;20066;-73
2022/04/04 01:06:11;;;;;;;11.35;5.45;;;4.70;99.90;;;;;;5292956;28;20081;-74
2022/04/04 01:08:42;;;;;;;9.25;5.50;;;4.90;99.90;;;;;;5293087;28;20016;-73
2022/04/04 01:11:13;;;;;;;11.10;5.82;;;5.30;99.90;;;;;;5293098;28;20031;-74
2022/04/04 01:13:48;;;;;;;10.82;6.07;;;5.30;99.90;;;;;;5274354;28;20521;-74
2022/04/04 01:16:19;;;;;;;8.77;5.32;;;5.00;99.90;;;;;;5292971;28;20031;-72
2022/04/04 01:18:50;;;;;;;9.45;6.07;;;5.10;99.90;;;;;;5292847;28;20023;-72
2022/04/04 01:21:20;;;;;;;12.30;6.35;;;4.80;99.90;;;;;;5292881;28;20024;-74
2022/04/04 01:23:56;;;;;;;12.25;6.05;;;5.20;99.90;;;;;;5292745;28;20020;-74
2022/04/04 01:26:27;;;;;;;9.15;6.35;;;5.00;99.90;;;;;;5292622;28;20024;-74
2022/04/04 01:28:57;;;;;;;11.45;5.88;;;4.90;99.90;;;;;;5292711;28;20137;-73
2022/04/04 01:31:28;;;;;;;10.18;5.45;;;5.00;99.90;;;;;;5292640;28;20047;-74
2022/04/04 01:33:59;;;;;;;9.25;5.60;;;5.20;99.90;;;;;;5292602;28;20015;-74
2022/04/04 01:36:30;;;;;;;9.63;5.63;;;5.30;99.90;;;;;;5292555;28;20030;-73
2022/04/04 01:39:01;;;;;;;8.45;5.47;;;5.30;99.90;;;;;;5292501;28;20019;-75
2022/04/04 01:41:32;;;;;;;10.25;5.28;;;5.40;99.90;;;;;;5292474;28;20359;-74
2022/04/04 01:44:04;;;;;;;9.88;5.15;;;5.50;99.90;;;;;;5292174;28;20035;-74
2022/04/04 01:46:35;;;;;;;9.85;4.90;;;5.50;99.90;;;;;;5292306;28;20023;-72
2022/04/04 01:49:06;;;;;;;9.43;5.50;;;5.60;99.90;;;;;;5292350;28;20055;-74
2022/04/04 01:51:38;;;;;;;9.80;6.50;;;5.80;99.90;;;;;;5292298;28;20027;-72
2022/04/04 01:54:09;;;;;;;11.05;6.18;;;6.10;99.90;;;;;;5292198;28;20016;-73
2022/04/04 01:56:41;;;;;;;13.00;6.78;;;6.10;99.90;;;;;;5292126;28;20061;-73
2022/04/04 01:59:12;;;;;;;11.07;6.30;;;6.20;99.90;;;;;;5292061;28;20102;-74
2022/04/04 02:01:44;;;;;;;19.13;9.75;;;6.50;99.90;;;;;;5291902;28;20107;-72
2022/04/04 02:04:15;;;;;;;14.77;9.13;;;7.00;99.90;;;;;;5291940;28;20028;-72
2022/04/04 02:06:46;;;;;;;16.48;8.30;;;7.40;99.90;;;;;;5273628;28;20046;-72
2022/04/04 02:09:17;;;;;;;15.02;9.00;;;7.40;99.90;;;;;;5291830;28;20028;-72
2022/04/04 02:11:48;;;;;;;16.35;8.77;;;7.50;99.90;;;;;;5291780;28;20024;-72
2022/04/04 02:14:19;;;;;;;14.63;9.52;;;7.60;99.90;;;;;;5291325;28;20474;-73
2022/04/04 02:16:50;;;;;;;12.00;8.55;;;7.60;99.90;;;;;;5291745;28;20024;-72
2022/04/04 02:19:21;;;;;;;12.18;8.50;;;7.70;99.90;;;;;;5291668;28;20042;-72
2022/04/04 02:21:52;;;;;;;15.65;8.82;;;7.70;99.90;;;;;;5291503;28;20026;-72
2022/04/04 02:24:23;;;;;;;15.07;8.75;;;7.70;99.90;;;;;;5291454;28;20448;-72
2022/04/04 02:26:54;;;;;;;19.98;9.65;;;7.70;99.90;;;;;;5291438;28;20102;-72
2022/04/04 02:29:25;;;;;;;19.35;10.80;;;7.70;99.90;;;;;;5291448;28;20035;-75
2022/04/04 02:31:56;;;;;;;19.35;11.10;;;7.70;99.90;;;;;;5291487;28;20019;-75
2022/04/04 02:34:26;;;;;;;21.92;11.95;;;7.60;99.90;;;;;;5291255;28;20023;-75
2022/04/04 02:36:58;;;;;;;21.52;12.48;;;7.50;99.90;;;;;;5291297;28;20028;-72
2022/04/04 02:39:29;;;;;;;20.10;11.85;;;7.60;99.90;;;;;;5291284;28;20036;-72
2022/04/04 02:42:00;;;;;;;20.15;11.13;;;7.70;99.90;;;;;;5291172;28;20019;-74
2022/04/04 02:44:30;;;;;;;21.83;11.93;;;7.60;99.90;;;;;;5290865;28;20043;-72
2022/04/04 02:47:01;;;;;;;19.70;11.32;;;7.70;99.90;;;;;;5290933;28;20034;-72
2022/04/04 02:49:32;;;;;;;18.35;12.38;;;7.70;99.90;;;;;;5291078;28;20031;-72
2022/04/04 02:52:03;;;;;;;19.10;11.10;;;7.70;99.90;;;;;;5291031;28;20024;-73
2022/04/04 02:54:34;;;;;;;16.75;10.95;;;7.60;99.90;;;;;;5290831;28;20027;-75
2022/04/04 02:57:05;;;;;;;20.52;11.25;;;7.70;99.90;;;;;;5290980;28;20016;-76
2022/04/04 02:59:37;;;;;;;23.80;12.10;;;7.60;99.90;;;;;;5290979;28;20471;-72
2022/04/04 03:02:08;;;;;;;16.60;11.20;;;7.50;99.90;;;;;;5290775;28;20073;-71
2022/04/04 03:04:42;;;;;;;21.35;11.57;;;7.40;99.90;;;;;;5290589;28;20407;-72
2022/04/04 03:07:13;;;;;;;15.98;11.32;;;7.60;99.90;;;;;;5290527;28;20106;-75
2022/04/04 03:09:43;;;;;;;18.55;11.68;;;7.50;99.90;;;;;;5290597;28;20149;-75
2022/04/04 03:12:14;;;;;;;17.42;12.13;;;7.30;99.90;;;;;;5290622;28;20471;-74
2022/04/04 03:14:45;;;;;;;19.88;12.25;;;7.40;99.90;;;;;;5289620;28;20052;-75
2022/04/04 03:17:16;;;;;;;18.48;12.38;;;7.30;99.90;;;;;;5290534;28;20016;-72
2022/04/04 03:19:47;;;;;;;23.52;11.60;;;7.30;99.90;;;;;;5290524;28;20482;-72
2022/04/04 03:22:18;;;;;;;22.55;11.38;;;7.20;99.90;;;;;;5290444;28;20043;-75
2022/04/04 03:24:49;;;;;;;18.85;11.70;;;7.30;99.90;;;;;;5290215;28;20505;-75
2022/04/04 03:27:20;;;;;;;18.08;12.13;;;7.30;99.90;;;;;;5290234;28;20016;-75
2022/04/04 03:29:51;;;;;;;17.20;11.05;;;7.20;99.90;;;;;;5290381;28;20027;-74
2022/04/04 03:32:22;;;;;;;19.55;11.85;;;7.40;99.90;;;;;;5290337;28;20370;-75
2022/04/04 03:34:53;;;;;;;20.88;11.48;;;7.20;99.90;;;;;;5271976;28;20016;-73
2022/04/04 03:37:24;;;;;;;20.88;12.25;;;7.20;99.90;;;;;;5290258;28;20478;-73
2022/04/04 03:39:55;;;;;;;21.13;13.25;;;7.20;99.90;;;;;;5290164;28;20378;-72
2022/04/04 03:42:26;;;;;;;17.35;11.00;;;7.20;99.90;;;;;;5290127;28;20028;-73
2022/04/04 03:44:57;;;;;;;25.42;12.68;;;7.40;99.90;;;;;;5271556;28;20043;-75
2022/04/04 03:47:28;;;;;;;20.05;11.15;;;7.10;99.90;;;;;;5289955;28;20020;-72
2022/04/04 03:49:59;;;;;;;18.08;11.55;;;6.90;99.90;;;;;;5290077;28;20408;-75
2022/04/04 03:52:30;;;;;;;17.67;12.57;;;7.10;99.90;;;;;;5271799;28;20486;-75
2022/04/04 03:55:02;;;;;;;17.35;11.65;;;7.20;99.90;;;;;;5290010;28;20019;-72
2022/04/04 03:57:33;;;;;;;19.05;12.43;;;7.00;99.90;;;;;;5289956;28;20414;-75
2022/04/04 04:00:05;;;;;;;20.55;12.25;;;7.00;99.90;;;;;;5289904;28;20034;-73
2022/04/04 04:02:37;;;;;;;23.17;12.02;;;6.90;99.90;;;;;;5289906;28;20102;-72
2022/04/04 04:05:09;;;;;;;18.02;12.38;;;7.00;99.90;;;;;;5289612;28;20039;-72
2022/04/04 04:07:41;;;;;;;18.73;12.35;;;7.00;99.90;;;;;;5289878;28;20493;-71
2022/04/04 04:10:12;;;;;;;14.90;11.20;;;7.00;99.90;;;;;;5271541;28;20034;-72
2022/04/04 04:12:45;;;;;;;22.10;11.68;;;6.90;99.90;;;;;;5271296;28;20011;-76
2022/04/04 04:15:21;;;;;;;19.73;13.15;;;7.00;99.90;;;;;;5289285;28;20053;-73
2022/04/04 04:17:52;;;;;;;18.63;11.82;;;7.00;99.90;;;;;;5289716;28;20016;-75
2022/04/04 04:20:25;;;;;;;18.60;12.88;;;7.00;99.90;;;;;;5289751;28;20034;-75
2022/04/04 04:23:02;;;;;;;18.50;12.70;;;7.00;99.90;;;;;;5289669;28;20027;-74
2022/04/04 04:25:35;;;;;;;19.48;13.20;;;6.90;99.90;;;;;;5290289;28;20031;-72
2022/04/04 04:28:07;;;;;;;20.67;12.63;;;7.10;99.90;;;;;;5293997;28;20055;-72
2022/04/04 04:30:38;;;;;;;16.42;11.40;;;7.00;99.90;;;;;;5293911;28;20031;-75
2022/04/04 04:33:09;;;;;;;22.65;12.55;;;7.10;99.90;;;;;;5293876;28;20374;-75
2022/04/04 04:35:40;;;;;;;19.65;12.82;;;7.20;99.90;;;;;;5275410;28;20024;-73
2022/04/04 04:38:11;;;;;;;17.80;11.80;;;7.20;99.90;;;;;;5293692;28;20024;-73
2022/04/04 04:40:42;;;;;;;18.02;11.88;;;7.20;99.90;;;;;;5293721;28;20475;-72
2022/04/04 04:43:13;;;;;;;22.23;12.85;;;7.20;99.90;;;;;;5293568;28;20028;-75
2022/04/04 04:45:44;;;;;;;21.30;11.43;;;7.30;99.90;;;;;;5274885;28;20035;-75
2022/04/04 04:48:15;;;;;;;22.15;12.07;;;7.20;99.90;;;;;;5293511;28;20046;-72
2022/04/04 04:50:47;;;;;;;17.88;11.40;;;7.30;99.90;;;;;;5293522;28;20024;-74
2022/04/04 04:53:18;;;;;;;14.35;10.30;;;7.30;99.90;;;;;;5293409;28;20020;-74
2022/04/04 04:55:49;;;;;;;17.65;10.68;;;7.30;99.90;;;;;;5293333;28;20018;-73
2022/04/04 04:58:20;;;;;;;15.88;11.02;;;7.60;99.90;;;;;;5274992;28;20032;-72
2022/04/04 05:00:51;;;;;;;15.57;10.35;;;7.60;99.90;;;;;;5293355;28;20020;-72
2022/04/04 05:03:24;;;;;;;15.32;10.60;;;7.40;99.90;;;;;;5293228;28;20028;-74
2022/04/04 05:05:55;;;;;;;18.88;11.65;;;7.30;99.90;;;;;;5292926;28;20118;-74
2022/04/04 05:08:26;;;;;;;16.73;11.38;;;7.40;99.90;;;;;;5293088;28;20028;-73
2022/04/04 05:10:59;;;;;;;16.02;10.90;;;7.60;99.90;;;;;;5293121;28;20028;-74
2022/04/04 05:13:30;;;;;;;14.25;10.57;;;7.60;99.90;;;;;;5292838;28;20073;-72
2022/04/04 05:16:04;;;;;;;16.48;10.40;;;7.60;99.90;;;;;;5292819;28;20043;-73
2022/04/04 05:18:35;;;;;;;18.98;11.55;;;7.70;99.90;;;;;;5292974;28;20451;-73
2022/04/04 05:21:08;;;;;;;18.15;10.45;;;7.80;99.90;;;;;;5274587;28;20045;-72
2022/04/04 05:23:39;;;;;;;17.50;9.90;;;7.90;99.90;;;;;;5292780;28;20028;-73
2022/04/04 05:26:10;;;;;;;13.65;10.00;;;7.90;99.90;;;;;;5292754;28;20102;-73
2022/04/04 05:28:41;;;;;;;15.85;10.27;;;8.00;99.90;;;;;;5292393;28;20020;-72
2022/04/04 05:31:12;;;;;;;13.15;9.63;;;8.00;99.90;;;;;;5292747;28;20024;-72
2022/04/04 05:33:42;;;;;;;14.93;9.88;;;7.80;99.90;;;;;;5292690;28;20046;-73
2022/04/04 05:36:13;;;;;;;16.67;9.52;;;8.00;99.90;;;;;;5273818;28;20382;-76
2022/04/04 05:38:44;;;;;;;14.13;10.02;;;8.10;99.90;;;;;;5292497;28;20015;-75
2022/04/04 05:41:15;;;;;;;14.15;9.88;;;8.20;99.90;;;;;;5292522;28;20031;-74
2022/04/04 05:43:47;;;;;;;13.35;9.38;;;8.10;99.90;;;;;;5292176;28;20023;-75
2022/04/04 05:46:18;;;;;;;17.02;9.63;;;8.00;99.90;;;;;;5274097;28;20032;-72
2022/04/04 05:48:49;;;;;;;14.02;9.50;;;8.20;99.90;;;;;;5292356;28;20454;-75
2022/04/04 05:51:19;;;;;;;16.80;8.60;;;8.30;99.90;;;;;;5292290;28;20031;-72
2022/04/04 05:53:50;;;;;;;12.45;8.73;;;8.50;99.90;;;;;;5274043;28;20026;-72
2022/04/04 05:56:22;;;;;;;16.95;8.23;;;8.50;99.90;;;;;;5292073;28;20043;-75
2022/04/04 05:58:53;;;;;;;13.00;7.80;;;8.50;99.90;;;;;;5292177;28;20129;-75
2022/04/04 06:01:23;;;;;;;11.90;7.43;;;8.90;99.90;;;;;;5273923;28;20375;-73
2022/04/04 06:03:54;;;;;;;10.93;7.40;;;9.10;99.90;;;;;;5273708;28;20026;-73
2022/04/04 06:06:25;;;;;;;12.38;7.88;;;9.80;99.90;;;;;;5291468;28;20035;-74
2022/04/04 06:08:56;;;;;;;14.10;6.95;;;9.50;99.90;;;;;;5273665;28;20386;-73
2022/04/04 06:11:27;;;;;;;9.90;6.40;;;9.80;99.90;;;;;;5273281;28;20027;-75
2022/04/04 06:13:58;;;;;;;7.07;5.20;;;9.80;99.90;;;;;;5273098;28;20391;-72
2022/04/04 06:16:29;;;;;;;8.10;5.93;;;9.70;99.90;;;;;;5291885;28;20112;-73
2022/04/04 06:19:00;;;;;;;9.30;4.82;;;10.20;99.90;;;;;;5291785;28;20051;-74
2022/04/04 06:21:31;;;;;;;10.75;5.35;;;10.00;99.90;;;;;;5291641;28;20031;-75
2022/04/04 06:24:02;;;;;;;6.78;5.10;;;10.10;99.90;;;;;;5291510;28;20027;-76
2022/04/04 06:26:33;;;;;;;7.03;5.15;;;10.30;99.90;;;;;;5291412;28;20031;-73
2022/04/04 06:29:03;;;;;;;8.88;4.63;;;10.50;99.90;;;;;;5291534;28;20356;-75
2022/04/04 06:31:34;;;;;;;7.15;4.90;;;10.20;99.90;;;;;;5291509;28;20499;-72
2022/04/04 06:34:06;;;;;;;6.95;4.47;;;10.40;99.90;;;;;;5291318;28;20383;-73
2022/04/04 06:36:40;;;;;;;7.63;4.47;;;10.10;99.90;;;;;;5291367;28;20024;-72
2022/04/04 06:39:11;;;;;;;6.30;4.78;;;9.90;99.90;;;;;;5291372;28;20020;-75
2022/04/04 06:41:43;;;;;;;9.48;5.13;;;9.90;99.90;;;;;;5291276;28;20031;-72
2022/04/04 06:44:16;;;;;;;9.52;5.18;;;10.10;99.90;;;;;;5272580;28;20142;-72
2022/04/04 06:46:46;;;;;;;6.63;4.53;;;10.30;99.90;;;;;;5291038;28;20027;-74
2022/04/04 06:49:17;;;;;;;7.03;4.22;;;10.30;99.90;;;;;;5290264;28;20028;-73
2022/04/04 06:51:51;;;;;;;6.97;4.72;;;10.30;99.90;;;;;;5291088;28;20023;-72
2022/04/04 06:54:22;;;;;;;7.65;4.72;;;9.90;99.90;;;;;;5290951;28;20469;-72
2022/04/04 06:56:53;;;;;;;5.90;4.90;;;10.00;99.90;;;;;;5272297;28;20534;-73
2022/04/04 06:59:25;;;;;;;7.18;4.43;;;9.80;99.90;;;;;;5290884;28;20110;-75
2022/04/04 07:01:55;;;;;;;8.32;5.25;;;9.70;99.90;;;;;;5290972;28;20033;-74
2022/04/04 07:04:26;;;;;;;6.75;4.43;;;9.90;99.90;;;;;;5290653;28;20032;-74
2022/04/04 07:06:57;;;;;;;6.05;4.25;;;10.10;99.90;;;;;;5290733;28;20031;-75
2022/04/04 07:09:29;;;;;;;6.82;4.50;;;9.80;99.90;;;;;;5290657;28;20442;-72
2022/04/04 07:12:00;;;;;;;7.30;5.07;;;9.90;99.90;;;;;;5290552;28;20019;-73
2022/04/04 07:14:31;;;;;;;7.25;5.38;;;9.80;99.90;;;;;;5290090;28;20043;-73
2022/04/04 07:17:02;;;;;;;9.95;5.40;;;9.90;99.90;;;;;;5272348;28;20421;-72
2022/04/04 07:19:33;;;;;;;12.50;4.97;;;10.00;99.90;;;;;;5290563;28;20030;-73
2022/04/04 07:22:04;;;;;;;8.95;5.53;;;10.00;99.90;;;;;;5290637;28;20015;-72
2022/04/04 07:24:35;;;;;;;9.82;6.25;;;10.40;99.90;;;;;;5290299;28;20114;-72
2022/04/04 07:27:06;;;;;;;11.95;5.65;;;10.40;99.90;;;;;;5290299;28;20031;-73
2022/04/04 07:29:37;;;;;;;7.32;5.03;;;10.90;99.90;;;;;;5272041;28;20121;-73
2022/04/04 07:32:09;;;;;;;8.95;4.80;;;11.30;99.90;;;;;;5290356;28;20031;-72
2022/04/04 07:34:40;;;;;;;6.15;4.40;;;11.20;99.90;;;;;;5290231;28;20027;-73
2022/04/04 07:37:11;;;;;;;6.30;3.97;;;11.30;99.90;;;;;;5289941;28;20028;-72
2022/04/04 07:39:42;;;;;;;10.05;4.65;;;10.90;99.90;;;;;;5271606;28;20493;-75
2022/04/04 07:42:13;;;;;;;8.52;4.57;;;11.40;99.90;;;;;;5290093;28;20047;-72
2022/04/04 07:44:43;;;;;;;9.55;3.95;;;11.20;99.90;;;;;;5289814;28;20112;-74
2022/04/04 07:47:14;;;;;;;7.35;4.68;;;10.90;99.90;;;;;;5289927;28;20106;-72
2022/04/04 07:49:45;;;;;;;8.40;3.80;;;10.90;99.90;;;;;;5290241;28;20031;-73
2022/04/04 07:52:16;;;;;;;8.32;5.32;;;9.80;99.90;;;;;;5290013;28;20485;-73
2022/04/04 07:54:47;;;;;;;5.40;4.38;;;11.10;99.90;;;;;;5271704;28;20490;-73
2022/04/04 07:57:18;;;;;;;7.80;4.65;;;11.50;99.90;;;;;;5289960;28;20023;-73
2022/04/04 07:59:52;;;;;;;8.15;4.30;;;11.70;99.90;;;;;;5289749;28;20077;-76
2022/04/04 08:02:22;;;;;;;7.10;4.63;;;11.40;99.90;;;;;;5289809;28;20540;-73
2022/04/04 08:04:53;;;;;;;8.48;4.80;;;12.00;99.90;;;;;;5289423;28;20059;-73
2022/04/04 08:07:24;;;;;;;8.32;5.15;;;12.10;99.90;;;;;;5271390;28;20459;-75
2022/04/04 08:09:55;;;;;;;6.45;4.20;;;11.80;99.90;;;;;;5289857;28;20054;-73
2022/04/04 08:12:27;;;;;;;7.80;4.75;;;12.00;99.90;;;;;;5289465;28;20020;-75
2022/04/04 08:14:58;;;;;;;7.70;4.75;;;11.80;99.90;;;;;;5271130;28;20491;-73
2022/04/04 08:17:30;;;;;;;7.35;4.25;;;11.60;99.90;;;;;;5289778;28;20027;-75
2022/04/04 08:20:02;;;;;;;10.05;4.13;;;11.40;99.90;;;;;;5289813;28;20399;-73
2022/04/04 08:22:39;;;;;;;7.78;4.43;;;11.50;99.90;;;;;;5289697;28;20023;-73
2022/04/04 08:25:11;;;;;;;7.47;4.65;;;11.70;99.90;;;;;;5289498;28;20031;-74
2022/04/04 08:27:43;;;;;;;7.00;4.85;;;12.20;99.90;;;;;;5289633;28;20024;-75
2022/04/04 08:30:17;;;;;;;7.07;4.35;;;12.30;99.90;;;;;;5289637;28;20034;-74
2022/04/04 08:32:48;;;;;;;7.47;4.20;;;12.50;99.90;;;;;;5271272;28;20024;-73
2022/04/04 08:35:19;;;;;;;5.43;3.80;;;11.80;99.90;;;;;;5289649;28;20023;-74
2022/04/04 08:37:50;;;;;;;6.63;3.78;;;11.40;99.90;;;;;;5289231;28;20497;-73
2022/04/04 08:40:20;;;;;;;6.68;3.90;;;11.20;99.90;;;;;;5271344;28;20379;-75
2022/04/04 08:42:52;;;;;;;8.93;3.92;;;11.40;99.90;;;;;;5289486;28;20463;-74
2022/04/04 08:45:23;;;;;;;6.45;3.50;;;12.00;99.90;;;;;;5289094;28;20546;-75
2022/04/04 08:47:55;;;;;;;6.43;4.38;;;12.30;99.90;;;;;;5289429;28;20153;-74
2022/04/04 08:50:25;;;;;;;8.18;4.70;;;12.40;99.90;;;;;;5289441;28;20035;-73
2022/04/04 08:52:56;;;;;;;7.13;4.13;;;11.90;99.90;;;;;;5289424;28;20022;-73
2022/04/04 08:55:27;;;;;;;6.90;4.22;;;11.90;99.90;;;;;;5289309;28;20027;-74
2022/04/04 08:57:58;;;;;;;4.88;3.67;;;11.60;99.90;;;;;;5289414;28;20028;-73
2022/04/04 09:00:30;;;;;;;7.72;3.60;;;11.90;99.90;;;;;;5271103;28;20471;-73
2022/04/04 09:03:02;;;;;;;8.70;4.00;;;12.20;99.90;;;;;;5286010;28;20031;-75
2022/04/04 09:05:35;;;;;;;7.13;4.32;;;12.40;99.90;;;;;;5261917;28;20122;-73
2022/04/04 09:08:07;;;;;;;5.15;3.60;;;13.50;99.90;;;;;;5278580;28;20032;-75
2022/04/04 09:10:43;;;;;;;7.20;3.72;;;12.90;99.90;;;;;;5272217;28;20051;-73
2022/04/04 09:13:17;;;;;;;5.72;3.60;;;12.60;99.90;;;;;;5275481;28;20027;-73
2022/04/04 09:16:00;;;;;;;4.68;2.60;;;12.90;99.90;;;;;;5259970;28;20127;-74
2022/04/04 09:18:36;;;;;;;5.90;3.38;;;13.40;99.90;;;;;;5293381;28;20102;-75
2022/04/04 09:21:17;;;;;;;9.90;3.97;;;12.90;99.90;;;;;;5272359;28;20028;-73
2022/04/04 09:23:48;;;;;;;6.72;3.90;;;13.10;99.90;;;;;;5272127;28;20035;-73
2022/04/04 09:26:32;;;;;;;8.95;4.35;;;12.90;99.90;;;;;;5271998;28;20024;-73
2022/04/04 09:29:18;;;;;;;7.93;4.05;;;12.90;99.90;;;;;;5271921;28;20016;-73
2022/04/04 09:31:55;;;;;;;8.05;3.25;;;13.30;99.90;;;;;;5272191;28;20099;-73
2022/04/04 09:34:26;;;;;;;4.07;3.13;;;13.60;99.90;;;;;;5286906;28;20102;-73
2022/04/04 09:36:58;;;;;;;4.50;3.20;;;12.80;99.90;;;;;;5292979;28;20119;-74
2022/04/04 09:39:34;;;;;;;6.70;3.40;;;12.60;99.90;;;;;;5292872;28;20043;-75
2022/04/04 09:42:15;;;;;;;4.97;3.33;;;13.00;99.90;;;;;;5265017;28;20118;-75
2022/04/04 09:45:00;;;;;;;5.93;3.33;;;13.00;99.90;;;;;;5281319;28;20085;-73
2022/04/04 09:47:54;;;;;;;5.25;4.00;;;13.80;99.90;;;;;;5292602;28;20076;-74
2022/04/04 09:50:32;;;;;;;3.00;2.70;;;13.90;99.90;;;;;;5292583;28;20030;-74
2022/04/04 09:53:05;;;;;;;4.25;2.50;;;13.70;99.90;;;;;;5287379;28;20414;-74
2022/04/04 09:55:38;;;;;;;5.15;3.30;;;14.20;99.90;;;;;;5280778;28;20544;-74
2022/04/04 09:58:14;;;;;;;6.50;3.53;;;13.10;99.90;;;;;;5277237;28;20114;-74
2022/04/04 10:00:48;;;;;;;4.97;2.88;;;13.30;99.90;;;;;;5253435;28;20059;-74
2022/04/04 10:03:20;;;;;;;5.88;3.88;;;13.90;99.90;;;;;;5271422;28;20042;-74
2022/04/04 10:05:57;;;;;;;3.83;2.67;;;14.50;99.90;;;;;;5271027;28;20107;-74
2022/04/04 10:08:28;;;;;;;2.65;2.40;;;13.70;99.90;;;;;;5271227;28;20107;-74
2022/04/04 10:11:00;;;;;;;4.53;2.22;;;13.90;99.90;;;;;;5271401;28;20107;-75
2022/04/04 10:13:31;;;;;;;3.72;2.65;;;14.00;99.90;;;;;;5270876;28;20043;-75
2022/04/04 10:16:03;;;;;;;3.70;2.40;;;14.10;99.90;;;;;;5280548;28;20045;-74
2022/04/04 10:18:35;;;;;;;3.25;2.35;;;13.40;99.90;;;;;;5282683;28;20054;-73
2022/04/04 10:21:08;;;;;;;3.05;2.30;;;13.50;99.90;;;;;;5270737;28;20016;-74
2022/04/04 10:23:41;;;;;;;3.10;2.40;;;14.30;99.90;;;;;;5270568;28;20032;-74
2022/04/04 10:26:14;;;;;;;3.28;2.03;;;12.60;98.00;;;;;;5270651;28;20093;-74
2022/04/04 10:28:47;;;;;;;3.85;2.50;;;14.10;99.90;;;;;;5270742;28;20028;-75
2022/04/04 10:31:28;;;;;;;4.32;2.95;;;13.60;97.40;;;;;;5270874;28;20418;-75
2022/04/04 10:34:11;;;;;;;4.22;2.50;;;14.30;99.90;;;;;;5270515;28;20506;-74
2022/04/04 10:37:07;;;;;;;5.10;2.20;;;13.70;90.40;;;;;;5285725;28;20114;-74
2022/04/04 10:39:47;;;;;;;4.63;2.50;;;12.90;94.30;;;;;;5278600;28;20020;-75
2022/04/04 10:42:37;;;;;;;5.32;3.22;;;13.50;99.90;;;;;;5270531;28;20423;-74
2022/04/04 10:45:10;;;;;;;5.60;3.17;;;13.80;99.90;;;;;;5273305;28;20048;-74
2022/04/04 10:47:45;;;;;;;3.22;2.40;;;13.30;92.50;;;;;;5258887;28;20495;-74
2022/04/04 10:50:23;;;;;;;3.45;2.60;;;12.60;98.10;;;;;;5272989;28;20036;-73
2022/04/04 10:52:58;;;;;;;3.22;2.30;;;13.90;97.50;;;;;;5277544;28;20089;-74
2022/04/04 10:55:38;;;;;;;4.35;2.17;;;14.00;93.00;;;;;;5281398;28;20046;-74
2022/04/04 10:58:11;;;;;;;4.07;2.85;;;14.10;95.10;;;;;;5278035;28;20031;-74
2022/04/04 11:00:55;;;;;;;3.47;2.50;;;14.20;95.30;;;;;;5283409;28;20709;-73
2022/04/04 11:03:30;;;;;;;3.38;2.08;;;13.60;90.10;;;;;;5251839;28;20032;-73
2022/04/04 11:09:03;;;;;;;4.78;2.80;;;14.00;90.30;;;;;;5270300;28;20039;-75
2022/04/04 11:11:47;;;;;;;4.13;2.20;;;14.30;92.60;;;;;;5270124;28;20032;-74
2022/04/04 11:14:28;;;;;;;3.28;2.15;;;13.70;86.30;;;;;;5274552;28;20097;-74
2022/04/04 11:17:17;;;;;;;2.70;2.08;;;14.20;87.90;;;;;;5280211;28;20023;-73
2022/04/04 11:20:04;;;;;;;2.53;1.80;;;13.90;90.70;;;;;;5286562;28;20035;-73
2022/04/04 11:22:37;;;;;;;4.20;1.90;;;13.80;81.70;;;;;;5277442;28;20069;-74
2022/04/04 11:25:17;;;;;;;2.15;1.60;;;13.30;80.90;;;;;;5275189;28;20356;-75
2022/04/04 11:27:48;;;;;;;2.47;1.60;;;13.20;74.00;;;;;;5275473;28;20031;-73
2022/04/04 11:30:21;;;;;;;2.10;1.40;;;12.80;72.40;;;;;;5277715;28;20404;-73
2022/04/04 11:32:57;;;;;;;3.15;1.35;;;12.00;73.30;;;;;;5280900;28;20019;-74
2022/04/04 11:35:32;;;;;;;2.50;1.40;;;13.20;78.50;;;;;;5283330;28;20020;-74
2022/04/04 11:38:11;;;;;;;1.85;1.50;;;12.20;69.50;;;;;;5276400;28;20475;-75
2022/04/04 11:40:45;;;;;;;2.67;1.52;;;12.20;72.90;;;;;;5251766;28;20024;-75
2022/04/04 11:43:17;;;;;;;1.95;1.35;;;12.30;75.20;;;;;;5268830;28;20085;-75
2022/04/04 11:45:53;;;;;;;1.40;1.08;;;11.60;72.40;;;;;;5250756;28;20158;-75
2022/04/04 11:48:24;;;;;;;1.67;1.33;;;12.00;69.80;;;;;;5269022;28;20028;-75
2022/04/04 11:50:57;;;;;;;3.55;1.60;;;12.40;74.60;;;;;;5269032;28;20012;-75
2022/04/04 11:53:37;;;;;;;3.22;1.90;;;12.80;79.20;;;;;;5268964;28;20028;-75
2022/04/04 11:56:13;;;;;;;2.60;1.48;;;12.70;77.00;;;;;;5271460;28;20095;-74
2022/04/04 11:58:54;;;;;;;2.22;1.55;;;12.20;72.50;;;;;;5281402;28;20028;-73
2022/04/04 12:01:33;;;;;;;3.13;1.98;;;12.00;76.90;;;;;;5289983;28;20015;-74
2022/04/04 12:04:07;;;;;;;3.72;2.10;;;12.80;83.30;;;;;;5272106;28;20073;-73
2022/04/04 12:06:38;;;;;;;2.58;1.90;;;12.80;86.20;;;;;;5290079;28;20027;-73
2022/04/04 12:09:12;;;;;;;2.83;2.00;;;11.80;81.60;;;;;;5290083;28;20030;-73
2022/04/04 12:11:43;;;;;;;2.38;1.63;;;12.60;85.50;;;;;;5289983;28;20395;-73
2022/04/04 12:14:14;;;;;;;3.08;1.60;;;12.60;89.40;;;;;;5289407;28;20042;-72
2022/04/04 12:16:53;;;;;;;3.67;2.33;;;12.30;86.10;;;;;;5290128;28;20034;-72
2022/04/04 12:19:25;;;;;;;3.92;2.10;;;12.60;87.00;;;;;;5289910;28;20020;-72
2022/04/04 12:21:57;;;;;;;5.10;2.22;;;12.70;86.60;;;;;;5289980;28;20019;-73
2022/04/04 12:27:18;;;;;;;4.90;3.08;;;12.70;85.60;;;;;;5289920;28;20513;-72
2022/04/04 12:29:48;;;;;;;3.35;2.10;;;12.20;88.20;;;;;;5290024;28;20011;-74
2022/04/04 12:32:20;;;;;;;4.95;2.00;;;12.20;88.70;;;;;;5290074;28;20459;-73
2022/04/04 12:35:03;;;;;;;3.55;2.63;;;12.50;88.00;;;;;;5289828;28;20019;-73
2022/04/04 12:37:42;;;;;;;6.40;4.00;;;12.10;88.30;;;;;;5289793;28;20486;-74
2022/04/04 12:40:25;;;;;;;5.63;3.25;;;11.80;92.90;;;;;;5289885;28;20019;-72
2022/04/04 12:43:05;;;;;;;2.60;1.95;;;12.10;91.60;;;;;;5289712;28;20076;-72
2022/04/04 12:45:47;;;;;;;3.50;2.33;;;12.40;90.60;;;;;;5289269;28;20043;-72
2022/04/04 12:48:18;;;;;;;5.20;2.42;;;12.60;90.20;;;;;;5293190;28;20028;-72
2022/04/04 12:50:50;;;;;;;3.15;2.55;;;12.80;90.00;;;;;;5293808;28;20020;-72
2022/04/04 12:53:21;;;;;;;5.38;2.30;;;13.10;90.00;;;;;;5293832;28;20039;-73
2022/04/04 12:56:04;;;;;;;2.85;2.15;;;12.90;88.30;;;;;;5293485;28;20020;-74
2022/04/04 12:58:35;;;;;;;4.18;2.42;;;13.00;93.30;;;;;;5293597;28;20491;-72
2022/04/04 13:01:15;;;;;;;4.93;2.58;;;13.00;92.70;;;;;;5293685;28;20054;-72
2022/04/04 13:03:51;;;;;;;3.53;2.10;;;13.00;90.60;;;;;;5293727;28;20463;-72
2022/04/04 13:06:23;;;;;;;5.13;2.50;;;12.80;93.80;;;;;;5293285;28;20114;-74
2022/04/04 13:08:58;;;;;;;4.25;2.45;;;12.30;93.50;;;;;;5275230;28;20034;-73
2022/04/04 13:11:44;;;;;;;2.53;1.75;;;12.90;94.60;;;;;;5293586;28;20107;-75
2022/04/04 13:14:15;;;;;;;3.00;1.63;;;13.00;88.30;;;;;;5292968;28;20395;-73
2022/04/04 13:16:56;;;;;;;3.85;2.47;;;12.20;85.00;;;;;;5293618;28;20051;-72
2022/04/04 13:19:28;;;;;;;1.63;1.38;;;13.40;89.30;;;;;;5293429;28;20041;-72